Home > Products > Valid Products > TAF

000
FTUS45 KBYZ 252335
TAFBIL
TAF
KBIL 252335Z 2600/2624 08009KT P6SM VCSH SCT025 BKN060
     FM261400 05007KT P6SM -SHRA OVC040
     FM262200 09008KT P6SM VCSH OVC050=



000
FTUS45 KBYZ 252335
TAFSHR
TAF
KSHR 252335Z 2600/2624 33014G18KT P6SM OVC025
     FM260600 VRB05KT P6SM VCSH FEW015 SCT060
     FM261000 33007KT 5SM -SHRA SCT010 OVC035
     FM261300 33015G21KT 4SM -RA SCT008 OVC015=



000
FTUS45 KBYZ 252335
TAFLVM
TAF
KLVM 252335Z 2600/2624 VRB04KT P6SM VCSH FEW035 OVC070
     FM261400 08013KT P6SM VCSH OVC020
     FM261600 07013KT 3SM -RASN BR BKN009 OVC013
     FM262100 09012KT 5SM -RASN SCT009 OVC013=



000
FTUS45 KBYZ 252335
TAFLVM
TAF
KLVM 252335Z 2600/2624 VRB04KT P6SM VCSH FEW035 OVC070
     FM261400 08013KT P6SM VCSH OVC020
     FM261600 07013KT 3SM -RASN BR BKN009 OVC013
     FM262100 09012KT 5SM -RASN SCT009 OVC013=



000
FTUS45 KBYZ 252335
TAFSHR
TAF
KSHR 252335Z 2600/2624 33014G18KT P6SM OVC025
     FM260600 VRB05KT P6SM VCSH FEW015 SCT060
     FM261000 33007KT 5SM -SHRA SCT010 OVC035
     FM261300 33015G21KT 4SM -RA SCT008 OVC015=



000
FTUS45 KBYZ 252335
TAFMLS
TAF
KMLS 252335Z 2600/2624 31013KT P6SM VCSH SCT016 BKN100
      TEMPO 2600/2604 BKN016
     FM260500 VRB06KT P6SM FEW020
     FM261000 VRB05KT P6SM VCFG FEW005 SCT030
     FM261500 02011KT P6SM SCT030 BKN080
     FM262000 01015KT P6SM -RA BKN035 OVC060=



000
FTUS45 KBYZ 252335
TAFBIL
TAF
KBIL 252335Z 2600/2624 08009KT P6SM VCSH SCT025 BKN060
     FM261400 05007KT P6SM -SHRA OVC040
     FM262200 09008KT P6SM VCSH OVC050=



000
FTUS45 KBYZ 252335
TAFMLS
TAF
KMLS 252335Z 2600/2624 31013KT P6SM VCSH SCT016 BKN100
      TEMPO 2600/2604 BKN016
     FM260500 VRB06KT P6SM FEW020
     FM261000 VRB05KT P6SM VCFG FEW005 SCT030
     FM261500 02011KT P6SM SCT030 BKN080
     FM262000 01015KT P6SM -RA BKN035 OVC060=



000
FTUS45 KBYZ 252209 AAB
TAFSHR
TAF AMD
KSHR 252209Z 2522/2618 35011KT P6SM VCSH OVC022
     FM260200 VRB05KT P6SM FEW040 SCT200
     FM261200 VRB05KT P6SM VCSH SCT030 BKN080
     FM261400 30010KT P6SM -SHRASN SCT030 BKN050=



000
FTUS45 KBYZ 252209 AAB
TAFSHR
TAF AMD
KSHR 252209Z 2522/2618 35011KT P6SM VCSH OVC022
     FM260200 VRB05KT P6SM FEW040 SCT200
     FM261200 VRB05KT P6SM VCSH SCT030 BKN080
     FM261400 30010KT P6SM -SHRASN SCT030 BKN050=



000
FTUS45 KBYZ 251723 AAA
TAFSHR
TAF AMD
KSHR 251723Z 2517/2618 31015KT P6SM VCSH BKN014 OVC025
     FM260200 VRB05KT P6SM FEW040 SCT200
     FM261200 VRB05KT P6SM VCSH SCT030 BKN080
     FM261400 30010KT P6SM -SHRASN SCT030 BKN050=



000
FTUS45 KBYZ 251723 AAA
TAFSHR
TAF AMD
KSHR 251723Z 2517/2618 31015KT P6SM VCSH BKN014 OVC025
     FM260200 VRB05KT P6SM FEW040 SCT200
     FM261200 VRB05KT P6SM VCSH SCT030 BKN080
     FM261400 30010KT P6SM -SHRASN SCT030 BKN050=



000
FTUS45 KBYZ 251723 AAA
TAFSHR
TAF AMD
KSHR 251723Z 2517/2618 31015KT P6SM VCSH BKN014 OVC025
     FM260200 VRB05KT P6SM FEW040 SCT200
     FM261200 VRB05KT P6SM VCSH SCT030 BKN080
     FM261400 30010KT P6SM -SHRASN SCT030 BKN050=



000
FTUS45 KBYZ 251723 AAA
TAFSHR
TAF AMD
KSHR 251723Z 2517/2618 31015KT P6SM VCSH BKN014 OVC025
     FM260200 VRB05KT P6SM FEW040 SCT200
     FM261200 VRB05KT P6SM VCSH SCT030 BKN080
     FM261400 30010KT P6SM -SHRASN SCT030 BKN050=



000
FTUS45 KBYZ 251720
TAFSHR
TAF
KSHR 251720Z 2518/2618 31015KT P6SM VCSH SCT020 BKN070
     FM260200 VRB05KT P6SM FEW040 SCT200
     FM261200 VRB05KT P6SM VCSH SCT030 BKN080
     FM261400 30010KT P6SM -SHRASN SCT030 BKN050=



000
FTUS45 KBYZ 251720
TAFSHR
TAF
KSHR 251720Z 2518/2618 31015KT P6SM VCSH SCT020 BKN070
     FM260200 VRB05KT P6SM FEW040 SCT200
     FM261200 VRB05KT P6SM VCSH SCT030 BKN080
     FM261400 30010KT P6SM -SHRASN SCT030 BKN050=



000
FTUS45 KBYZ 251720
TAFBIL
TAF
KBIL 251720Z 2518/2618 28006KT P6SM -SHRA FEW015 SCT030 BKN035
      TEMPO 2518/2520 BKN050
     FM252000 32010KT P6SM SCT040 BKN200
     FM260200 06008KT P6SM FEW020 SCT100
     FM261000 08010KT P6SM VCFG FEW002 SCT120=



000
FTUS45 KBYZ 251720
TAFLVM
TAF
KLVM 251720Z 2518/2618 25011KT P6SM VCSH FEW015 BKN035 OVC050
     FM260000 08011KT P6SM FEW040 SCT200
     FM260800 09014KT P6SM VCSH SCT040 SCT200
     FM261000 07013KT 3SM -RASN BR OVC013=



000
FTUS45 KBYZ 251720
TAFLVM
TAF
KLVM 251720Z 2518/2618 25011KT P6SM VCSH FEW015 BKN035 OVC050
     FM260000 08011KT P6SM FEW040 SCT200
     FM260800 09014KT P6SM VCSH SCT040 SCT200
     FM261000 07013KT 3SM -RASN BR OVC013=



000
FTUS45 KBYZ 251720
TAFBIL
TAF
KBIL 251720Z 2518/2618 28006KT P6SM -SHRA FEW015 SCT030 BKN035
      TEMPO 2518/2520 BKN050
     FM252000 32010KT P6SM SCT040 BKN200
     FM260200 06008KT P6SM FEW020 SCT100
     FM261000 08010KT P6SM VCFG FEW002 SCT120=



000
FTUS45 KBYZ 251720
TAFMLS
TAF
KMLS 251720Z 2518/2618 33015G22KT P6SM -RA FEW015 SCT030 BKN060
      TEMPO 2518/2522 4SM -RA OVC020
     FM252200 30010KT P6SM SCT020 BKN100
     FM260300 VRB06KT P6SM SCT020 BKN200
     FM261000 05006KT P6SM VCFG FEW005 SCT030 BKN200
     FM261500 05011KT P6SM SCT030 BKN120=



000
FTUS45 KBYZ 251720
TAFSHR
TAF
KSHR 251720Z 2518/2618 31015KT P6SM VCSH SCT020 BKN070
     FM260200 VRB05KT P6SM FEW040 SCT200
     FM261200 VRB05KT P6SM VCSH SCT030 BKN080
     FM261400 30010KT P6SM -SHRASN SCT030 BKN050=



000
FTUS45 KBYZ 251720
TAFMLS
TAF
KMLS 251720Z 2518/2618 33015G22KT P6SM -RA FEW015 SCT030 BKN060
      TEMPO 2518/2522 4SM -RA OVC020
     FM252200 30010KT P6SM SCT020 BKN100
     FM260300 VRB06KT P6SM SCT020 BKN200
     FM261000 05006KT P6SM VCFG FEW005 SCT030 BKN200
     FM261500 05011KT P6SM SCT030 BKN120=



000
FTUS45 KBYZ 251720
TAFMLS
TAF
KMLS 251720Z 2518/2618 33015G22KT P6SM -RA FEW015 SCT030 BKN060
      TEMPO 2518/2522 4SM -RA OVC020
     FM252200 30010KT P6SM SCT020 BKN100
     FM260300 VRB06KT P6SM SCT020 BKN200
     FM261000 05006KT P6SM VCFG FEW005 SCT030 BKN200
     FM261500 05011KT P6SM SCT030 BKN120=



000
FTUS45 KBYZ 251720
TAFLVM
TAF
KLVM 251720Z 2518/2618 25011KT P6SM VCSH FEW015 BKN035 OVC050
     FM260000 08011KT P6SM FEW040 SCT200
     FM260800 09014KT P6SM VCSH SCT040 SCT200
     FM261000 07013KT 3SM -RASN BR OVC013=



000
FTUS45 KBYZ 251329 AAA
TAFLVM
TAF AMD
KLVM 251329Z 2513/2612 27010KT P6SM -RASN SCT015 OVC035
      TEMPO 2513/2515 3SM -RASN BR SCT004 OVC012
     FM251500 VRB05KT P6SM VCSH FEW015 SCT040 BKN080
     FM252000 28010KT P6SM VCSH SCT040 BKN200
     FM260200 VRB05KT P6SM FEW040 SCT200
     FM261000 08010KT 3SM -RASN BR OVC013=



000
FTUS45 KBYZ 251329 AAA
TAFLVM
TAF AMD
KLVM 251329Z 2513/2612 27010KT P6SM -RASN SCT015 OVC035
      TEMPO 2513/2515 3SM -RASN BR SCT004 OVC012
     FM251500 VRB05KT P6SM VCSH FEW015 SCT040 BKN080
     FM252000 28010KT P6SM VCSH SCT040 BKN200
     FM260200 VRB05KT P6SM FEW040 SCT200
     FM261000 08010KT 3SM -RASN BR OVC013=



000
FTUS45 KBYZ 251228 AAA
TAFSHR
TAF AMD
KSHR 251228Z 2512/2612 30012KT P6SM VCSH BKN007 OVC100
     FM251400 32008KT 5SM -SHRA BR SCT007 BKN020 OVC040
     FM251800 32008KT P6SM VCSH SCT020 BKN070
     FM260200 VRB05KT P6SM FEW040 SCT200
     FM261000 VRB05KT P6SM VCSH SCT030 BKN080=



000
FTUS45 KBYZ 251228 AAA
TAFSHR
TAF AMD
KSHR 251228Z 2512/2612 30012KT P6SM VCSH BKN007 OVC100
     FM251400 32008KT 5SM -SHRA BR SCT007 BKN020 OVC040
     FM251800 32008KT P6SM VCSH SCT020 BKN070
     FM260200 VRB05KT P6SM FEW040 SCT200
     FM261000 VRB05KT P6SM VCSH SCT030 BKN080=



000
FTUS45 KBYZ 251228 AAA
TAFSHR
TAF AMD
KSHR 251228Z 2512/2612 30012KT P6SM VCSH BKN007 OVC100
     FM251400 32008KT 5SM -SHRA BR SCT007 BKN020 OVC040
     FM251800 32008KT P6SM VCSH SCT020 BKN070
     FM260200 VRB05KT P6SM FEW040 SCT200
     FM261000 VRB05KT P6SM VCSH SCT030 BKN080=



000
FTUS45 KBYZ 251228 AAA
TAFSHR
TAF AMD
KSHR 251228Z 2512/2612 30012KT P6SM VCSH BKN007 OVC100
     FM251400 32008KT 5SM -SHRA BR SCT007 BKN020 OVC040
     FM251800 32008KT P6SM VCSH SCT020 BKN070
     FM260200 VRB05KT P6SM FEW040 SCT200
     FM261000 VRB05KT P6SM VCSH SCT030 BKN080=



000
FTUS45 KBYZ 251120
TAFMLS
TAF
KMLS 251120Z 2512/2612 18010KT P6SM SCT040 BKN100
     FM251400 VRB05KT P6SM VCSH SCT030 OVC070
     FM251700 30013KT P6SM -RA FEW015 BKN030 OVC060
      TEMPO 2517/2521 4SM -RA OVC020
     FM260000 30010KT P6SM SCT020 BKN100
     FM261000 05006KT P6SM VCFG FEW005 SCT030 BKN200=



000
FTUS45 KBYZ 251120
TAFBIL
TAF
KBIL 251120Z 2512/2612 34014KT P6SM -RA BKN015 OVC030
      TEMPO 2512/2516 3SM -RA BR SCT005 OVC012
     FM251600 32014KT P6SM VCSH FEW015 SCT030 OVC080
      TEMPO 2516/2518 5SM -RA BR SCT012 OVC030
     FM252000 32014KT P6SM SCT040 BKN200
     FM260200 06008KT P6SM FEW020 SCT100
     FM261000 08010KT P6SM VCFG FEW002 SCT120=



000
FTUS45 KBYZ 251120
TAFSHR
TAF
KSHR 251120Z 2512/2612 30008KT P6SM VCSH FEW020 SCT050 BKN100
     FM251400 32008KT 5SM -SHRA BR BKN020 OVC040
     FM251800 32008KT P6SM VCSH SCT020 BKN070
     FM260200 VRB05KT P6SM FEW040 SCT200
     FM261000 VRB05KT P6SM VCSH SCT030 BKN080=



000
FTUS45 KBYZ 251120
TAFBIL
TAF
KBIL 251120Z 2512/2612 34014KT P6SM -RA BKN015 OVC030
      TEMPO 2512/2516 3SM -RA BR SCT005 OVC012
     FM251600 32014KT P6SM VCSH FEW015 SCT030 OVC080
      TEMPO 2516/2518 5SM -RA BR SCT012 OVC030
     FM252000 32014KT P6SM SCT040 BKN200
     FM260200 06008KT P6SM FEW020 SCT100
     FM261000 08010KT P6SM VCFG FEW002 SCT120=



000
FTUS45 KBYZ 251120
TAFLVM
TAF
KLVM 251120Z 2512/2612 27010KT P6SM -RASN SCT015 OVC030
      TEMPO 2512/2514 3SM -RASN BR SCT004 OVC012
     FM251500 VRB05KT P6SM VCSH FEW015 SCT040 BKN080
     FM252000 28010KT P6SM VCSH SCT040 BKN200
     FM260200 VRB05KT P6SM FEW040 SCT200
     FM261000 08010KT 3SM -RASN BR OVC013=



000
FTUS45 KBYZ 251120
TAFMLS
TAF
KMLS 251120Z 2512/2612 18010KT P6SM SCT040 BKN100
     FM251400 VRB05KT P6SM VCSH SCT030 OVC070
     FM251700 30013KT P6SM -RA FEW015 BKN030 OVC060
      TEMPO 2517/2521 4SM -RA OVC020
     FM260000 30010KT P6SM SCT020 BKN100
     FM261000 05006KT P6SM VCFG FEW005 SCT030 BKN200=



000
FTUS45 KBYZ 251120
TAFLVM
TAF
KLVM 251120Z 2512/2612 27010KT P6SM -RASN SCT015 OVC030
      TEMPO 2512/2514 3SM -RASN BR SCT004 OVC012
     FM251500 VRB05KT P6SM VCSH FEW015 SCT040 BKN080
     FM252000 28010KT P6SM VCSH SCT040 BKN200
     FM260200 VRB05KT P6SM FEW040 SCT200
     FM261000 08010KT 3SM -RASN BR OVC013=



000
FTUS45 KBYZ 251120
TAFSHR
TAF
KSHR 251120Z 2512/2612 30008KT P6SM VCSH FEW020 SCT050 BKN100
     FM251400 32008KT 5SM -SHRA BR BKN020 OVC040
     FM251800 32008KT P6SM VCSH SCT020 BKN070
     FM260200 VRB05KT P6SM FEW040 SCT200
     FM261000 VRB05KT P6SM VCSH SCT030 BKN080=



000
FTUS45 KBYZ 251049 AAB
TAFLVM
TAF AMD
KLVM 251049Z 2511/2606 27010KT 6SM -RASN BR SCT015 OVC030
      TEMPO 2511/2513 3SM -RASN BR SCT004 OVC012
     FM251500 VRB05KT P6SM VCSH FEW015 SCT040 BKN080
     FM252000 28010KT P6SM VCSH SCT040 BKN200
     FM260200 VRB05KT P6SM FEW040 SCT200=



000
FTUS45 KBYZ 251049 AAB
TAFLVM
TAF AMD
KLVM 251049Z 2511/2606 27010KT 6SM -RASN BR SCT015 OVC030
      TEMPO 2511/2513 3SM -RASN BR SCT004 OVC012
     FM251500 VRB05KT P6SM VCSH FEW015 SCT040 BKN080
     FM252000 28010KT P6SM VCSH SCT040 BKN200
     FM260200 VRB05KT P6SM FEW040 SCT200=



000
FTUS45 KBYZ 250944 AAA
TAFBIL
TAF AMD
KBIL 250944Z 2510/2606 34014KT P6SM -RA BKN015 OVC030
      TEMPO 2510/2514 3SM -RA BR SCT005 OVC012
     FM251600 32014KT P6SM VCSH FEW015 SCT030 OVC080
     FM252000 32014KT P6SM SCT040 BKN200
     FM260200 06008KT P6SM FEW020 SCT100=



000
FTUS45 KBYZ 250944 AAA
TAFBIL
TAF AMD
KBIL 250944Z 2510/2606 34014KT P6SM -RA BKN015 OVC030
      TEMPO 2510/2514 3SM -RA BR SCT005 OVC012
     FM251600 32014KT P6SM VCSH FEW015 SCT030 OVC080
     FM252000 32014KT P6SM SCT040 BKN200
     FM260200 06008KT P6SM FEW020 SCT100=



000
FTUS45 KBYZ 250944 AAA
TAFBIL
TAF AMD
KBIL 250944Z 2510/2606 34014KT P6SM -RA BKN015 OVC030
      TEMPO 2510/2514 3SM -RA BR SCT005 OVC012
     FM251600 32014KT P6SM VCSH FEW015 SCT030 OVC080
     FM252000 32014KT P6SM SCT040 BKN200
     FM260200 06008KT P6SM FEW020 SCT100=



000
FTUS45 KBYZ 250944 AAA
TAFBIL
TAF AMD
KBIL 250944Z 2510/2606 34014KT P6SM -RA BKN015 OVC030
      TEMPO 2510/2514 3SM -RA BR SCT005 OVC012
     FM251600 32014KT P6SM VCSH FEW015 SCT030 OVC080
     FM252000 32014KT P6SM SCT040 BKN200
     FM260200 06008KT P6SM FEW020 SCT100=



000
FTUS45 KBYZ 250810 AAA
TAFLVM
TAF AMD
KLVM 250810Z 2508/2606 24014KT P6SM -RA FEW008 SCT014 OVC022
      TEMPO 2508/2509 3SM -RA BR BKN008 OVC014
     FM250900 27010KT 4SM -RASN BR FEW004 BKN008 OVC015
      TEMPO 2509/2513 2SM -RASN BR BKN004 OVC008
     FM251500 VRB05KT P6SM VCSH FEW015 SCT040 BKN080
     FM252000 28010KT P6SM VCSH SCT040 BKN200
     FM260200 VRB05KT P6SM FEW040 SCT200=



000
FTUS45 KBYZ 250810 AAA
TAFLVM
TAF AMD
KLVM 250810Z 2508/2606 24014KT P6SM -RA FEW008 SCT014 OVC022
      TEMPO 2508/2509 3SM -RA BR BKN008 OVC014
     FM250900 27010KT 4SM -RASN BR FEW004 BKN008 OVC015
      TEMPO 2509/2513 2SM -RASN BR BKN004 OVC008
     FM251500 VRB05KT P6SM VCSH FEW015 SCT040 BKN080
     FM252000 28010KT P6SM VCSH SCT040 BKN200
     FM260200 VRB05KT P6SM FEW040 SCT200=



000
FTUS45 KBYZ 250810 AAA
TAFLVM
TAF AMD
KLVM 250810Z 2508/2606 24014KT P6SM -RA FEW008 SCT014 OVC022
      TEMPO 2508/2509 3SM -RA BR BKN008 OVC014
     FM250900 27010KT 4SM -RASN BR FEW004 BKN008 OVC015
      TEMPO 2509/2513 2SM -RASN BR BKN004 OVC008
     FM251500 VRB05KT P6SM VCSH FEW015 SCT040 BKN080
     FM252000 28010KT P6SM VCSH SCT040 BKN200
     FM260200 VRB05KT P6SM FEW040 SCT200=



000
FTUS45 KBYZ 250522
TAFBIL
TAF
KBIL 250522Z 2506/2606 35014KT P6SM -SHRA SCT040 BKN080
      TEMPO 2506/2510 4SM -SHRA SCT020 OVC035
     FM251000 34014KT P6SM -SHRA SCT015 OVC030
      TEMPO 2510/2514 4SM -SHRA SCT007 OVC012
     FM251600 32014KT P6SM VCSH FEW015 SCT030 OVC080
     FM252000 32014KT P6SM SCT040 BKN200
     FM260200 06008KT P6SM FEW020 SCT100=



000
FTUS45 KBYZ 250522
TAFSHR
TAF
KSHR 250522Z 2506/2606 30008KT P6SM VCSH SCT040 BKN100
     FM251000 30008KT P6SM -SHRA BKN040 OVC080
     FM251400 32008KT 4SM -SHRA BR BKN020 OVC040
     FM252100 32008KT P6SM VCSH SCT020 BKN070
     FM260200 VRB05KT P6SM FEW040 SCT200=



000
FTUS45 KBYZ 250522
TAFBIL
TAF
KBIL 250522Z 2506/2606 35014KT P6SM -SHRA SCT040 BKN080
      TEMPO 2506/2510 4SM -SHRA SCT020 OVC035
     FM251000 34014KT P6SM -SHRA SCT015 OVC030
      TEMPO 2510/2514 4SM -SHRA SCT007 OVC012
     FM251600 32014KT P6SM VCSH FEW015 SCT030 OVC080
     FM252000 32014KT P6SM SCT040 BKN200
     FM260200 06008KT P6SM FEW020 SCT100=



000
FTUS45 KBYZ 250522
TAFLVM
TAF
KLVM 250522Z 2506/2606 27014KT 5SM -RA BR SCT008 BKN014 OVC020
      TEMPO 2506/2509 3SM -RA BR OVC008
     FM250900 30010KT 4SM -RASN BR FEW004 BKN008 OVC015
      TEMPO 2509/2513 2SM -RASN BR BKN004 OVC008
     FM251500 VRB05KT P6SM VCSH FEW015 SCT040 BKN080
     FM252000 28010KT P6SM VCSH SCT040 BKN200
     FM260200 VRB05KT P6SM FEW040 SCT200=



000
FTUS45 KBYZ 250522
TAFMLS
TAF
KMLS 250522Z 2506/2606 VRB05KT P6SM FEW040 SCT100
     FM250800 VRB05KT P6SM VCSH SCT040 BKN100 WS020/18040KT
     FM251400 VRB05KT P6SM VCSH BKN030 OVC070
     FM251700 28013KT 4SM -SHRA BR SCT008 OVC020
     FM260100 28010KT P6SM SCT020 BKN100=



000
FTUS45 KBYZ 250522
TAFMLS
TAF
KMLS 250522Z 2506/2606 VRB05KT P6SM FEW040 SCT100
     FM250800 VRB05KT P6SM VCSH SCT040 BKN100 WS020/18040KT
     FM251400 VRB05KT P6SM VCSH BKN030 OVC070
     FM251700 28013KT 4SM -SHRA BR SCT008 OVC020
     FM260100 28010KT P6SM SCT020 BKN100=



000
FTUS45 KBYZ 250522
TAFSHR
TAF
KSHR 250522Z 2506/2606 30008KT P6SM VCSH SCT040 BKN100
     FM251000 30008KT P6SM -SHRA BKN040 OVC080
     FM251400 32008KT 4SM -SHRA BR BKN020 OVC040
     FM252100 32008KT P6SM VCSH SCT020 BKN070
     FM260200 VRB05KT P6SM FEW040 SCT200=



000
FTUS45 KBYZ 250522
TAFLVM
TAF
KLVM 250522Z 2506/2606 27014KT 5SM -RA BR SCT008 BKN014 OVC020
      TEMPO 2506/2509 3SM -RA BR OVC008
     FM250900 30010KT 4SM -RASN BR FEW004 BKN008 OVC015
      TEMPO 2509/2513 2SM -RASN BR BKN004 OVC008
     FM251500 VRB05KT P6SM VCSH FEW015 SCT040 BKN080
     FM252000 28010KT P6SM VCSH SCT040 BKN200
     FM260200 VRB05KT P6SM FEW040 SCT200=



000
FTUS45 KBYZ 250522
TAFBIL
TAF
KBIL 250522Z 2506/2606 35014KT P6SM -SHRA SCT040 BKN080
      TEMPO 2506/2510 4SM -SHRA SCT020 OVC035
     FM251000 34014KT P6SM -SHRA SCT015 OVC030
      TEMPO 2510/2514 4SM -SHRA SCT007 OVC012
     FM251600 32014KT P6SM VCSH FEW015 SCT030 OVC080
     FM252000 32014KT P6SM SCT040 BKN200
     FM260200 06008KT P6SM FEW020 SCT100=



000
FTUS45 KBYZ 250522
TAFBIL
TAF
KBIL 250522Z 2506/2606 35014KT P6SM -SHRA SCT040 BKN080
      TEMPO 2506/2510 4SM -SHRA SCT020 OVC035
     FM251000 34014KT P6SM -SHRA SCT015 OVC030
      TEMPO 2510/2514 4SM -SHRA SCT007 OVC012
     FM251600 32014KT P6SM VCSH FEW015 SCT030 OVC080
     FM252000 32014KT P6SM SCT040 BKN200
     FM260200 06008KT P6SM FEW020 SCT100=



000
FTUS45 KBYZ 250522
TAFMLS
TAF
KMLS 250522Z 2506/2606 VRB05KT P6SM FEW040 SCT100
     FM250800 VRB05KT P6SM VCSH SCT040 BKN100 WS020/18040KT
     FM251400 VRB05KT P6SM VCSH BKN030 OVC070
     FM251700 28013KT 4SM -SHRA BR SCT008 OVC020
     FM260100 28010KT P6SM SCT020 BKN100=



000
FTUS45 KBYZ 250522
TAFMLS
TAF
KMLS 250522Z 2506/2606 VRB05KT P6SM FEW040 SCT100
     FM250800 VRB05KT P6SM VCSH SCT040 BKN100 WS020/18040KT
     FM251400 VRB05KT P6SM VCSH BKN030 OVC070
     FM251700 28013KT 4SM -SHRA BR SCT008 OVC020
     FM260100 28010KT P6SM SCT020 BKN100=



000
FTUS45 KBYZ 250522
TAFLVM
TAF
KLVM 250522Z 2506/2606 27014KT 5SM -RA BR SCT008 BKN014 OVC020
      TEMPO 2506/2509 3SM -RA BR OVC008
     FM250900 30010KT 4SM -RASN BR FEW004 BKN008 OVC015
      TEMPO 2509/2513 2SM -RASN BR BKN004 OVC008
     FM251500 VRB05KT P6SM VCSH FEW015 SCT040 BKN080
     FM252000 28010KT P6SM VCSH SCT040 BKN200
     FM260200 VRB05KT P6SM FEW040 SCT200=



000
FTUS45 KBYZ 250522
TAFLVM
TAF
KLVM 250522Z 2506/2606 27014KT 5SM -RA BR SCT008 BKN014 OVC020
      TEMPO 2506/2509 3SM -RA BR OVC008
     FM250900 30010KT 4SM -RASN BR FEW004 BKN008 OVC015
      TEMPO 2509/2513 2SM -RASN BR BKN004 OVC008
     FM251500 VRB05KT P6SM VCSH FEW015 SCT040 BKN080
     FM252000 28010KT P6SM VCSH SCT040 BKN200
     FM260200 VRB05KT P6SM FEW040 SCT200=



000
FTUS45 KBYZ 250522
TAFSHR
TAF
KSHR 250522Z 2506/2606 30008KT P6SM VCSH SCT040 BKN100
     FM251000 30008KT P6SM -SHRA BKN040 OVC080
     FM251400 32008KT 4SM -SHRA BR BKN020 OVC040
     FM252100 32008KT P6SM VCSH SCT020 BKN070
     FM260200 VRB05KT P6SM FEW040 SCT200=



000
FTUS45 KBYZ 250522
TAFSHR
TAF
KSHR 250522Z 2506/2606 30008KT P6SM VCSH SCT040 BKN100
     FM251000 30008KT P6SM -SHRA BKN040 OVC080
     FM251400 32008KT 4SM -SHRA BR BKN020 OVC040
     FM252100 32008KT P6SM VCSH SCT020 BKN070
     FM260200 VRB05KT P6SM FEW040 SCT200=



000
FTUS45 KBYZ 242338
TAFSHR
TAF
KSHR 242338Z 2500/2524 01010KT P6SM VCSH SCT080
     FM250300 22005KT P6SM VCSH SCT080 BKN100
     FM251200 31010KT P6SM VCSH SCT050 BKN070
     FM251800 32014G22KT P6SM VCSH BKN040=



000
FTUS45 KBYZ 242338
TAFLVM
TAF
KLVM 242338Z 2500/2524 27007KT P6SM VCSH BKN070 OVC090
     FM250300 27015KT P6SM -SHRA BKN040
     FM250600 28012KT 5SM -RA BKN015 OVC030
     FM251200 27012KT P6SM VCSH BKN030 OVC050
     FM251800 25010KT P6SM VCSH BKN060=



000
FTUS45 KBYZ 242338
TAFMLS
TAF
KMLS 242338Z 2500/2524 27010KT P6SM VCTS BKN080CB OVC100
     FM250200 09008KT P6SM VCSH FEW070 BKN100
     FM251600 15011KT P6SM BKN080
     FM252100 31012G20KT 5SM -RA SCT030 BKN050=



000
FTUS45 KBYZ 242338
TAFSHR
TAF
KSHR 242338Z 2500/2524 01010KT P6SM VCSH SCT080
     FM250300 22005KT P6SM VCSH SCT080 BKN100
     FM251200 31010KT P6SM VCSH SCT050 BKN070
     FM251800 32014G22KT P6SM VCSH BKN040=



000
FTUS45 KBYZ 242338
TAFMLS
TAF
KMLS 242338Z 2500/2524 27010KT P6SM VCTS BKN080CB OVC100
     FM250200 09008KT P6SM VCSH FEW070 BKN100
     FM251600 15011KT P6SM BKN080
     FM252100 31012G20KT 5SM -RA SCT030 BKN050=



000
FTUS45 KBYZ 242338
TAFLVM
TAF
KLVM 242338Z 2500/2524 27007KT P6SM VCSH BKN070 OVC090
     FM250300 27015KT P6SM -SHRA BKN040
     FM250600 28012KT 5SM -RA BKN015 OVC030
     FM251200 27012KT P6SM VCSH BKN030 OVC050
     FM251800 25010KT P6SM VCSH BKN060=



000
FTUS45 KBYZ 242338
TAFBIL
TAF
KBIL 242338Z 2500/2524 11004KT P6SM VCSH SCT090 SCT160
     FM250600 34015G23KT P6SM -SHRA BKN050 OVC080
     FM251200 30011KT P6SM VCSH BKN060
     FM251800 35011KT P6SM BKN080=



000
FTUS45 KBYZ 242338
TAFBIL
TAF
KBIL 242338Z 2500/2524 11004KT P6SM VCSH SCT090 SCT160
     FM250600 34015G23KT P6SM -SHRA BKN050 OVC080
     FM251200 30011KT P6SM VCSH BKN060
     FM251800 35011KT P6SM BKN080=



000
FTUS45 KBYZ 242338
TAFLVM
TAF
KLVM 242338Z 2500/2524 27007KT P6SM VCSH BKN070 OVC090
     FM250300 27015KT P6SM -SHRA BKN040
     FM250600 28012KT 5SM -RA BKN015 OVC030
     FM251200 27012KT P6SM VCSH BKN030 OVC050
     FM251800 25010KT P6SM VCSH BKN060=



000
FTUS45 KBYZ 242338
TAFBIL
TAF
KBIL 242338Z 2500/2524 11004KT P6SM VCSH SCT090 SCT160
     FM250600 34015G23KT P6SM -SHRA BKN050 OVC080
     FM251200 30011KT P6SM VCSH BKN060
     FM251800 35011KT P6SM BKN080=



000
FTUS45 KBYZ 242338
TAFSHR
TAF
KSHR 242338Z 2500/2524 01010KT P6SM VCSH SCT080
     FM250300 22005KT P6SM VCSH SCT080 BKN100
     FM251200 31010KT P6SM VCSH SCT050 BKN070
     FM251800 32014G22KT P6SM VCSH BKN040=



000
FTUS45 KBYZ 242338
TAFLVM
TAF
KLVM 242338Z 2500/2524 27007KT P6SM VCSH BKN070 OVC090
     FM250300 27015KT P6SM -SHRA BKN040
     FM250600 28012KT 5SM -RA BKN015 OVC030
     FM251200 27012KT P6SM VCSH BKN030 OVC050
     FM251800 25010KT P6SM VCSH BKN060=



000
FTUS45 KBYZ 242338
TAFBIL
TAF
KBIL 242338Z 2500/2524 11004KT P6SM VCSH SCT090 SCT160
     FM250600 34015G23KT P6SM -SHRA BKN050 OVC080
     FM251200 30011KT P6SM VCSH BKN060
     FM251800 35011KT P6SM BKN080=



000
FTUS45 KBYZ 242338
TAFSHR
TAF
KSHR 242338Z 2500/2524 01010KT P6SM VCSH SCT080
     FM250300 22005KT P6SM VCSH SCT080 BKN100
     FM251200 31010KT P6SM VCSH SCT050 BKN070
     FM251800 32014G22KT P6SM VCSH BKN040=



000
FTUS45 KBYZ 242338
TAFMLS
TAF
KMLS 242338Z 2500/2524 27010KT P6SM VCTS BKN080CB OVC100
     FM250200 09008KT P6SM VCSH FEW070 BKN100
     FM251600 15011KT P6SM BKN080
     FM252100 31012G20KT 5SM -RA SCT030 BKN050=



000
FTUS45 KBYZ 242338
TAFMLS
TAF
KMLS 242338Z 2500/2524 27010KT P6SM VCTS BKN080CB OVC100
     FM250200 09008KT P6SM VCSH FEW070 BKN100
     FM251600 15011KT P6SM BKN080
     FM252100 31012G20KT 5SM -RA SCT030 BKN050=



000
FTUS45 KBYZ 241720
TAFMLS
TAF
KMLS 241720Z 2418/2518 VRB05KT P6SM FEW120
     FM242200 14009KT P6SM VCSH SCT070 BKN100
     FM250200 09008KT P6SM FEW070 BKN100 WS015/13030KT
     FM250700 VRB06KT P6SM FEW070 BKN100 WS015/17030KT
     FM251000 31012G20KT P6SM VCSH SCT030 BKN050=



000
FTUS45 KBYZ 241720
TAFLVM
TAF
KLVM 241720Z 2418/2518 23010KT P6SM BKN100
     FM242300 29009KT P6SM VCTS SCT050CB BKN080
     FM250100 27015KT 5SM -SHRA BKN025
     FM250600 28009KT P6SM VCSH BKN060=



000
FTUS45 KBYZ 241720
TAFSHR
TAF
KSHR 241720Z 2418/2518 VRB06KT P6SM SCT150
     FM242200 17006KT P6SM VCSH SCT080 BKN120
     FM250400 18013KT P6SM VCSH SCT080 BKN120
     FM250900 VRB06KT P6SM SCT100
     FM251100 32014G22KT P6SM VCSH BKN040=



000
FTUS45 KBYZ 241720
TAFBIL
TAF
KBIL 241720Z 2418/2518 VRB05KT P6SM FEW080 BKN150
     FM242200 10007KT P6SM VCSH SCT060 BKN100
     FM250100 18008KT P6SM -SHRA BKN050
     FM250400 30018G25KT P6SM VCSH BKN050
     FM251000 30011KT P6SM VCSH BKN050=



000
FTUS45 KBYZ 241720
TAFMLS
TAF
KMLS 241720Z 2418/2518 VRB05KT P6SM FEW120
     FM242200 14009KT P6SM VCSH SCT070 BKN100
     FM250200 09008KT P6SM FEW070 BKN100 WS015/13030KT
     FM250700 VRB06KT P6SM FEW070 BKN100 WS015/17030KT
     FM251000 31012G20KT P6SM VCSH SCT030 BKN050=



000
FTUS45 KBYZ 241720
TAFBIL
TAF
KBIL 241720Z 2418/2518 VRB05KT P6SM FEW080 BKN150
     FM242200 10007KT P6SM VCSH SCT060 BKN100
     FM250100 18008KT P6SM -SHRA BKN050
     FM250400 30018G25KT P6SM VCSH BKN050
     FM251000 30011KT P6SM VCSH BKN050=



000
FTUS45 KBYZ 241720
TAFSHR
TAF
KSHR 241720Z 2418/2518 VRB06KT P6SM SCT150
     FM242200 17006KT P6SM VCSH SCT080 BKN120
     FM250400 18013KT P6SM VCSH SCT080 BKN120
     FM250900 VRB06KT P6SM SCT100
     FM251100 32014G22KT P6SM VCSH BKN040=



000
FTUS45 KBYZ 241720
TAFLVM
TAF
KLVM 241720Z 2418/2518 23010KT P6SM BKN100
     FM242300 29009KT P6SM VCTS SCT050CB BKN080
     FM250100 27015KT 5SM -SHRA BKN025
     FM250600 28009KT P6SM VCSH BKN060=



000
FTUS45 KBYZ 241720
TAFMLS
TAF
KMLS 241720Z 2418/2518 VRB05KT P6SM FEW120
     FM242200 14009KT P6SM VCSH SCT070 BKN100
     FM250200 09008KT P6SM FEW070 BKN100 WS015/13030KT
     FM250700 VRB06KT P6SM FEW070 BKN100 WS015/17030KT
     FM251000 31012G20KT P6SM VCSH SCT030 BKN050=



000
FTUS45 KBYZ 241720
TAFSHR
TAF
KSHR 241720Z 2418/2518 VRB06KT P6SM SCT150
     FM242200 17006KT P6SM VCSH SCT080 BKN120
     FM250400 18013KT P6SM VCSH SCT080 BKN120
     FM250900 VRB06KT P6SM SCT100
     FM251100 32014G22KT P6SM VCSH BKN040=



000
FTUS45 KBYZ 241720
TAFLVM
TAF
KLVM 241720Z 2418/2518 23010KT P6SM BKN100
     FM242300 29009KT P6SM VCTS SCT050CB BKN080
     FM250100 27015KT 5SM -SHRA BKN025
     FM250600 28009KT P6SM VCSH BKN060=



000
FTUS45 KBYZ 241720
TAFLVM
TAF
KLVM 241720Z 2418/2518 23010KT P6SM BKN100
     FM242300 29009KT P6SM VCTS SCT050CB BKN080
     FM250100 27015KT 5SM -SHRA BKN025
     FM250600 28009KT P6SM VCSH BKN060=



000
FTUS45 KBYZ 241720
TAFSHR
TAF
KSHR 241720Z 2418/2518 VRB06KT P6SM SCT150
     FM242200 17006KT P6SM VCSH SCT080 BKN120
     FM250400 18013KT P6SM VCSH SCT080 BKN120
     FM250900 VRB06KT P6SM SCT100
     FM251100 32014G22KT P6SM VCSH BKN040=



000
FTUS45 KBYZ 241720
TAFMLS
TAF
KMLS 241720Z 2418/2518 VRB05KT P6SM FEW120
     FM242200 14009KT P6SM VCSH SCT070 BKN100
     FM250200 09008KT P6SM FEW070 BKN100 WS015/13030KT
     FM250700 VRB06KT P6SM FEW070 BKN100 WS015/17030KT
     FM251000 31012G20KT P6SM VCSH SCT030 BKN050=



000
FTUS45 KBYZ 241720
TAFBIL
TAF
KBIL 241720Z 2418/2518 VRB05KT P6SM FEW080 BKN150
     FM242200 10007KT P6SM VCSH SCT060 BKN100
     FM250100 18008KT P6SM -SHRA BKN050
     FM250400 30018G25KT P6SM VCSH BKN050
     FM251000 30011KT P6SM VCSH BKN050=



000
FTUS45 KBYZ 241720
TAFBIL
TAF
KBIL 241720Z 2418/2518 VRB05KT P6SM FEW080 BKN150
     FM242200 10007KT P6SM VCSH SCT060 BKN100
     FM250100 18008KT P6SM -SHRA BKN050
     FM250400 30018G25KT P6SM VCSH BKN050
     FM251000 30011KT P6SM VCSH BKN050=



000
FTUS45 KBYZ 241339 AAA
TAFSHR
TAF AMD
KSHR 241339Z 2414/2512 VRB03KT 3SM BR FEW001
      TEMPO 2414/2415 6SM BR FEW001
     FM241500 VRB04KT P6SM SCT150
     FM242000 17006KT P6SM VCSH SCT080 BKN120
     FM250900 31014KT P6SM VCSH BKN040=



000
FTUS45 KBYZ 241139
TAFSHR
TAF
KSHR 241139Z 2412/2512 00000KT 1/4SM FG VV001
      TEMPO 2413/2414 1SM BR SCT001
     FM241400 VRB03KT 3SM BR FEW001
     FM241500 VRB04KT P6SM SCT150
     FM242000 17006KT P6SM VCSH SCT080 BKN120
     FM250900 31014KT P6SM VCSH BKN040=



000
FTUS45 KBYZ 241139
TAFBIL
TAF
KBIL 241139Z 2412/2512 22008KT P6SM SCT120
     FM241700 05009KT P6SM FEW080 BKN150
     FM242300 08007KT P6SM VCSH SCT060 BKN100
     FM250300 34018KT P6SM VCSH BKN050=



000
FTUS45 KBYZ 241139
TAFMLS
TAF
KMLS 241139Z 2412/2512 10007KT P6SM FEW120
     FM242100 14009KT P6SM VCSH SCT070 BKN100=



000
FTUS45 KBYZ 241139
TAFMLS
TAF
KMLS 241139Z 2412/2512 10007KT P6SM FEW120
     FM242100 14009KT P6SM VCSH SCT070 BKN100=



000
FTUS45 KBYZ 241139
TAFBIL
TAF
KBIL 241139Z 2412/2512 22008KT P6SM SCT120
     FM241700 05009KT P6SM FEW080 BKN150
     FM242300 08007KT P6SM VCSH SCT060 BKN100
     FM250300 34018KT P6SM VCSH BKN050=



000
FTUS45 KBYZ 241139
TAFLVM
TAF
KLVM 241139Z 2412/2512 VRB06KT P6SM BKN100
     FM241800 08008KT P6SM FEW070 BKN100
     FM242000 VRB06KT P6SM VCTS SCT050CB BKN080
     FM242300 25018KT 6SM -SHRA SCT025 BKN040
     FM250200 27010KT 5SM -SHRA BKN025
     FM251000 28008KT P6SM VCSH BKN060=



000
FTUS45 KBYZ 241139
TAFMLS
TAF
KMLS 241139Z 2412/2512 10007KT P6SM FEW120
     FM242100 14009KT P6SM VCSH SCT070 BKN100=



000
FTUS45 KBYZ 241139
TAFBIL
TAF
KBIL 241139Z 2412/2512 22008KT P6SM SCT120
     FM241700 05009KT P6SM FEW080 BKN150
     FM242300 08007KT P6SM VCSH SCT060 BKN100
     FM250300 34018KT P6SM VCSH BKN050=



000
FTUS45 KBYZ 241139
TAFSHR
TAF
KSHR 241139Z 2412/2512 00000KT 1/4SM FG VV001
      TEMPO 2413/2414 1SM BR SCT001
     FM241400 VRB03KT 3SM BR FEW001
     FM241500 VRB04KT P6SM SCT150
     FM242000 17006KT P6SM VCSH SCT080 BKN120
     FM250900 31014KT P6SM VCSH BKN040=



000
FTUS45 KBYZ 241139
TAFLVM
TAF
KLVM 241139Z 2412/2512 VRB06KT P6SM BKN100
     FM241800 08008KT P6SM FEW070 BKN100
     FM242000 VRB06KT P6SM VCTS SCT050CB BKN080
     FM242300 25018KT 6SM -SHRA SCT025 BKN040
     FM250200 27010KT 5SM -SHRA BKN025
     FM251000 28008KT P6SM VCSH BKN060=



000
FTUS45 KBYZ 241139
TAFMLS
TAF
KMLS 241139Z 2412/2512 10007KT P6SM FEW120
     FM242100 14009KT P6SM VCSH SCT070 BKN100=



000
FTUS45 KBYZ 241139
TAFBIL
TAF
KBIL 241139Z 2412/2512 22008KT P6SM SCT120
     FM241700 05009KT P6SM FEW080 BKN150
     FM242300 08007KT P6SM VCSH SCT060 BKN100
     FM250300 34018KT P6SM VCSH BKN050=



000
FTUS45 KBYZ 241139
TAFLVM
TAF
KLVM 241139Z 2412/2512 VRB06KT P6SM BKN100
     FM241800 08008KT P6SM FEW070 BKN100
     FM242000 VRB06KT P6SM VCTS SCT050CB BKN080
     FM242300 25018KT 6SM -SHRA SCT025 BKN040
     FM250200 27010KT 5SM -SHRA BKN025
     FM251000 28008KT P6SM VCSH BKN060=



000
FTUS45 KBYZ 241139
TAFSHR
TAF
KSHR 241139Z 2412/2512 00000KT 1/4SM FG VV001
      TEMPO 2413/2414 1SM BR SCT001
     FM241400 VRB03KT 3SM BR FEW001
     FM241500 VRB04KT P6SM SCT150
     FM242000 17006KT P6SM VCSH SCT080 BKN120
     FM250900 31014KT P6SM VCSH BKN040=



000
FTUS45 KBYZ 241139
TAFSHR
TAF
KSHR 241139Z 2412/2512 00000KT 1/4SM FG VV001
      TEMPO 2413/2414 1SM BR SCT001
     FM241400 VRB03KT 3SM BR FEW001
     FM241500 VRB04KT P6SM SCT150
     FM242000 17006KT P6SM VCSH SCT080 BKN120
     FM250900 31014KT P6SM VCSH BKN040=



000
FTUS45 KBYZ 241139
TAFLVM
TAF
KLVM 241139Z 2412/2512 VRB06KT P6SM BKN100
     FM241800 08008KT P6SM FEW070 BKN100
     FM242000 VRB06KT P6SM VCTS SCT050CB BKN080
     FM242300 25018KT 6SM -SHRA SCT025 BKN040
     FM250200 27010KT 5SM -SHRA BKN025
     FM251000 28008KT P6SM VCSH BKN060=



000
FTUS45 KBYZ 241115 AAA
TAFSHR
TAF AMD
KSHR 241115Z 2411/2506 00000KT 1/4SM FG VV001
      TEMPO 2413/2414 2SM BR SCT001
     FM241400 VRB03KT 3SM BR FEW001
     FM241500 VRB04KT P6SM SCT150
     FM242000 17006KT P6SM VCSH SCT080 BKN120=



000
FTUS45 KBYZ 241115 AAA
TAFSHR
TAF AMD
KSHR 241115Z 2411/2506 00000KT 1/4SM FG VV001
      TEMPO 2413/2414 2SM BR SCT001
     FM241400 VRB03KT 3SM BR FEW001
     FM241500 VRB04KT P6SM SCT150
     FM242000 17006KT P6SM VCSH SCT080 BKN120=



000
FTUS45 KBYZ 241115 AAA
TAFSHR
TAF AMD
KSHR 241115Z 2411/2506 00000KT 1/4SM FG VV001
      TEMPO 2413/2414 2SM BR SCT001
     FM241400 VRB03KT 3SM BR FEW001
     FM241500 VRB04KT P6SM SCT150
     FM242000 17006KT P6SM VCSH SCT080 BKN120=



000
FTUS45 KBYZ 241115 AAA
TAFSHR
TAF AMD
KSHR 241115Z 2411/2506 00000KT 1/4SM FG VV001
      TEMPO 2413/2414 2SM BR SCT001
     FM241400 VRB03KT 3SM BR FEW001
     FM241500 VRB04KT P6SM SCT150
     FM242000 17006KT P6SM VCSH SCT080 BKN120=



000
FTUS45 KBYZ 240532
TAFMLS
TAF
KMLS 240532Z 2406/2506 VRB06KT P6SM FEW100
     FM242100 13009KT P6SM VCSH SCT070 BKN100=



000
FTUS45 KBYZ 240532
TAFSHR
TAF
KSHR 240532Z 2406/2506 VRB04KT P6SM SCT150
     FM242000 17006KT P6SM VCSH SCT080 BKN120=



000
FTUS45 KBYZ 240532
TAFBIL
TAF
KBIL 240532Z 2406/2506 16007KT P6SM FEW100
     FM240630 VRB06KT P6SM VCSH BKN080
     FM241100 24008KT P6SM BKN120
     FM241700 05009KT P6SM FEW080 BKN150
     FM250000 09007KT P6SM VCSH SCT060 BKN100
     FM250300 34018KT P6SM VCSH BKN060=



000
FTUS45 KBYZ 240532
TAFLVM
TAF
KLVM 240532Z 2406/2506 27009KT P6SM VCSH BKN070
     FM240900 30007KT P6SM BKN100
     FM241800 08008KT P6SM FEW080 BKN120
     FM242100 VRB06KT P6SM VCSH SCT050 BKN080
     FM250000 27015KT 6SM -SHRA SCT025 BKN040=



000
FTUS45 KBYZ 240532
TAFBIL
TAF
KBIL 240532Z 2406/2506 16007KT P6SM FEW100
     FM240630 VRB06KT P6SM VCSH BKN080
     FM241100 24008KT P6SM BKN120
     FM241700 05009KT P6SM FEW080 BKN150
     FM250000 09007KT P6SM VCSH SCT060 BKN100
     FM250300 34018KT P6SM VCSH BKN060=



000
FTUS45 KBYZ 240532
TAFMLS
TAF
KMLS 240532Z 2406/2506 VRB06KT P6SM FEW100
     FM242100 13009KT P6SM VCSH SCT070 BKN100=



000
FTUS45 KBYZ 240532
TAFSHR
TAF
KSHR 240532Z 2406/2506 VRB04KT P6SM SCT150
     FM242000 17006KT P6SM VCSH SCT080 BKN120=



000
FTUS45 KBYZ 240532
TAFLVM
TAF
KLVM 240532Z 2406/2506 27009KT P6SM VCSH BKN070
     FM240900 30007KT P6SM BKN100
     FM241800 08008KT P6SM FEW080 BKN120
     FM242100 VRB06KT P6SM VCSH SCT050 BKN080
     FM250000 27015KT 6SM -SHRA SCT025 BKN040=



000
FTUS45 KBYZ 240532
TAFMLS
TAF
KMLS 240532Z 2406/2506 VRB06KT P6SM FEW100
     FM242100 13009KT P6SM VCSH SCT070 BKN100=



000
FTUS45 KBYZ 240532
TAFSHR
TAF
KSHR 240532Z 2406/2506 VRB04KT P6SM SCT150
     FM242000 17006KT P6SM VCSH SCT080 BKN120=



000
FTUS45 KBYZ 240532
TAFBIL
TAF
KBIL 240532Z 2406/2506 16007KT P6SM FEW100
     FM240630 VRB06KT P6SM VCSH BKN080
     FM241100 24008KT P6SM BKN120
     FM241700 05009KT P6SM FEW080 BKN150
     FM250000 09007KT P6SM VCSH SCT060 BKN100
     FM250300 34018KT P6SM VCSH BKN060=



000
FTUS45 KBYZ 240532
TAFLVM
TAF
KLVM 240532Z 2406/2506 27009KT P6SM VCSH BKN070
     FM240900 30007KT P6SM BKN100
     FM241800 08008KT P6SM FEW080 BKN120
     FM242100 VRB06KT P6SM VCSH SCT050 BKN080
     FM250000 27015KT 6SM -SHRA SCT025 BKN040=



000
FTUS45 KBYZ 240532
TAFBIL
TAF
KBIL 240532Z 2406/2506 16007KT P6SM FEW100
     FM240630 VRB06KT P6SM VCSH BKN080
     FM241100 24008KT P6SM BKN120
     FM241700 05009KT P6SM FEW080 BKN150
     FM250000 09007KT P6SM VCSH SCT060 BKN100
     FM250300 34018KT P6SM VCSH BKN060=



000
FTUS45 KBYZ 240532
TAFLVM
TAF
KLVM 240532Z 2406/2506 27009KT P6SM VCSH BKN070
     FM240900 30007KT P6SM BKN100
     FM241800 08008KT P6SM FEW080 BKN120
     FM242100 VRB06KT P6SM VCSH SCT050 BKN080
     FM250000 27015KT 6SM -SHRA SCT025 BKN040=



000
FTUS45 KBYZ 240532
TAFSHR
TAF
KSHR 240532Z 2406/2506 VRB04KT P6SM SCT150
     FM242000 17006KT P6SM VCSH SCT080 BKN120=



000
FTUS45 KBYZ 240532
TAFMLS
TAF
KMLS 240532Z 2406/2506 VRB06KT P6SM FEW100
     FM242100 13009KT P6SM VCSH SCT070 BKN100=



000
FTUS45 KBYZ 240457 AAB
TAFLVM
TAF AMD
KLVM 240457Z 2405/2424 28009KT P6SM VCSH SCT070 BKN100
      TEMPO 2405/2406 VRB10G20KT -SHRA BKN040
     FM240800 29007KT P6SM BKN100
     FM242200 VRB06KT P6SM VCSH SCT040 BKN060=



000
FTUS45 KBYZ 240457 AAB
TAFLVM
TAF AMD
KLVM 240457Z 2405/2424 28009KT P6SM VCSH SCT070 BKN100
      TEMPO 2405/2406 VRB10G20KT -SHRA BKN040
     FM240800 29007KT P6SM BKN100
     FM242200 VRB06KT P6SM VCSH SCT040 BKN060=



000
FTUS45 KBYZ 240457 AAB
TAFLVM
TAF AMD
KLVM 240457Z 2405/2424 28009KT P6SM VCSH SCT070 BKN100
      TEMPO 2405/2406 VRB10G20KT -SHRA BKN040
     FM240800 29007KT P6SM BKN100
     FM242200 VRB06KT P6SM VCSH SCT040 BKN060=



000
FTUS45 KBYZ 240357 AAA
TAFLVM
TAF AMD
KLVM 240357Z 2404/2424 28009KT P6SM SCT070 BKN100
     FM242200 VRB06KT P6SM VCSH SCT040 BKN060=



000
FTUS45 KBYZ 240357 AAA
TAFLVM
TAF AMD
KLVM 240357Z 2404/2424 28009KT P6SM SCT070 BKN100
     FM242200 VRB06KT P6SM VCSH SCT040 BKN060=



000
FTUS45 KBYZ 240221 AAA
TAFBIL
TAF AMD
KBIL 240221Z 2402/2424 15007KT P6SM VCSH SCT060 BKN150
     FM240400 VRB05KT P6SM SCT150
     FM241800 04007KT P6SM BKN150=



000
FTUS45 KBYZ 240221 AAA
TAFBIL
TAF AMD
KBIL 240221Z 2402/2424 15007KT P6SM VCSH SCT060 BKN150
     FM240400 VRB05KT P6SM SCT150
     FM241800 04007KT P6SM BKN150=



000
FTUS45 KBYZ 232332
TAFBIL
TAF
KBIL 232332Z 2400/2424 10006KT P6SM VCSH SCT090 BKN150
     FM240230 VRB05KT P6SM SCT150
     FM241800 04007KT P6SM BKN150=



000
FTUS45 KBYZ 232332
TAFSHR
TAF
KSHR 232332Z 2400/2424 32011KT P6SM VCSH FEW035 SCT050 BKN080
     FM240200 VRB04KT P6SM BKN150=



000
FTUS45 KBYZ 232332
TAFBIL
TAF
KBIL 232332Z 2400/2424 10006KT P6SM VCSH SCT090 BKN150
     FM240230 VRB05KT P6SM SCT150
     FM241800 04007KT P6SM BKN150=



000
FTUS45 KBYZ 232332
TAFMLS
TAF
KMLS 232332Z 2400/2424 VRB06KT P6SM SCT090
     FM241700 11007KT P6SM SCT070=



000
FTUS45 KBYZ 232332
TAFSHR
TAF
KSHR 232332Z 2400/2424 32011KT P6SM VCSH FEW035 SCT050 BKN080
     FM240200 VRB04KT P6SM BKN150=



000
FTUS45 KBYZ 232332
TAFLVM
TAF
KLVM 232332Z 2400/2424 VRB06KT P6SM VCSH SCT050 BKN090
     FM240300 28009KT P6SM SCT070 BKN100
     FM242200 VRB06KT P6SM VCSH SCT040 BKN060=



000
FTUS45 KBYZ 232332
TAFLVM
TAF
KLVM 232332Z 2400/2424 VRB06KT P6SM VCSH SCT050 BKN090
     FM240300 28009KT P6SM SCT070 BKN100
     FM242200 VRB06KT P6SM VCSH SCT040 BKN060=



000
FTUS45 KBYZ 232332
TAFMLS
TAF
KMLS 232332Z 2400/2424 VRB06KT P6SM SCT090
     FM241700 11007KT P6SM SCT070=



000
FTUS45 KBYZ 232332
TAFBIL
TAF
KBIL 232332Z 2400/2424 10006KT P6SM VCSH SCT090 BKN150
     FM240230 VRB05KT P6SM SCT150
     FM241800 04007KT P6SM BKN150=



000
FTUS45 KBYZ 232332
TAFSHR
TAF
KSHR 232332Z 2400/2424 32011KT P6SM VCSH FEW035 SCT050 BKN080
     FM240200 VRB04KT P6SM BKN150=



000
FTUS45 KBYZ 232332
TAFMLS
TAF
KMLS 232332Z 2400/2424 VRB06KT P6SM SCT090
     FM241700 11007KT P6SM SCT070=



000
FTUS45 KBYZ 232332
TAFLVM
TAF
KLVM 232332Z 2400/2424 VRB06KT P6SM VCSH SCT050 BKN090
     FM240300 28009KT P6SM SCT070 BKN100
     FM242200 VRB06KT P6SM VCSH SCT040 BKN060=



000
FTUS45 KBYZ 232332
TAFBIL
TAF
KBIL 232332Z 2400/2424 10006KT P6SM VCSH SCT090 BKN150
     FM240230 VRB05KT P6SM SCT150
     FM241800 04007KT P6SM BKN150=



000
FTUS45 KBYZ 232332
TAFLVM
TAF
KLVM 232332Z 2400/2424 VRB06KT P6SM VCSH SCT050 BKN090
     FM240300 28009KT P6SM SCT070 BKN100
     FM242200 VRB06KT P6SM VCSH SCT040 BKN060=



000
FTUS45 KBYZ 232332
TAFMLS
TAF
KMLS 232332Z 2400/2424 VRB06KT P6SM SCT090
     FM241700 11007KT P6SM SCT070=



000
FTUS45 KBYZ 232332
TAFSHR
TAF
KSHR 232332Z 2400/2424 32011KT P6SM VCSH FEW035 SCT050 BKN080
     FM240200 VRB04KT P6SM BKN150=



000
FTUS45 KBYZ 231720
TAFMLS
TAF
KMLS 231720Z 2318/2418 15010KT P6SM VCSH FEW070 BKN100
     FM232000 32010KT P6SM SCT100
     FM232300 VRB06KT P6SM SCT070
     FM241700 09007KT P6SM BKN060=



000
FTUS45 KBYZ 231720
TAFLVM
TAF
KLVM 231720Z 2318/2418 27012KT P6SM FEW060 BKN120
     FM232000 VRB06KT P6SM VCSH SCT050 BKN080
     FM240600 25013KT P6SM BKN080
     FM241600 23010KT P6SM BKN080=



000
FTUS45 KBYZ 231720
TAFMLS
TAF
KMLS 231720Z 2318/2418 15010KT P6SM VCSH FEW070 BKN100
     FM232000 32010KT P6SM SCT100
     FM232300 VRB06KT P6SM SCT070
     FM241700 09007KT P6SM BKN060=



000
FTUS45 KBYZ 231720
TAFMLS
TAF
KMLS 231720Z 2318/2418 15010KT P6SM VCSH FEW070 BKN100
     FM232000 32010KT P6SM SCT100
     FM232300 VRB06KT P6SM SCT070
     FM241700 09007KT P6SM BKN060=



000
FTUS45 KBYZ 231720
TAFBIL
TAF
KBIL 231720Z 2318/2418 VRB06KT P6SM VCSH SCT050 BKN080
     FM232100 VRB06KT P6SM SCT200
     FM240800 24007KT P6SM SCT120
     FM241700 VRB06KT P6SM SCT200=



000
FTUS45 KBYZ 231720
TAFLVM
TAF
KLVM 231720Z 2318/2418 27012KT P6SM FEW060 BKN120
     FM232000 VRB06KT P6SM VCSH SCT050 BKN080
     FM240600 25013KT P6SM BKN080
     FM241600 23010KT P6SM BKN080=



000
FTUS45 KBYZ 231720
TAFSHR
TAF
KSHR 231720Z 2318/2418 30009KT P6SM FEW050 BKN120
     FM232100 34008KT P6SM VCSH SCT050 BKN080
     FM240200 VRB06KT P6SM BKN100=



000
FTUS45 KBYZ 231720
TAFSHR
TAF
KSHR 231720Z 2318/2418 30009KT P6SM FEW050 BKN120
     FM232100 34008KT P6SM VCSH SCT050 BKN080
     FM240200 VRB06KT P6SM BKN100=



000
FTUS45 KBYZ 231720
TAFBIL
TAF
KBIL 231720Z 2318/2418 VRB06KT P6SM VCSH SCT050 BKN080
     FM232100 VRB06KT P6SM SCT200
     FM240800 24007KT P6SM SCT120
     FM241700 VRB06KT P6SM SCT200=



000
FTUS45 KBYZ 231720
TAFLVM
TAF
KLVM 231720Z 2318/2418 27012KT P6SM FEW060 BKN120
     FM232000 VRB06KT P6SM VCSH SCT050 BKN080
     FM240600 25013KT P6SM BKN080
     FM241600 23010KT P6SM BKN080=



000
FTUS45 KBYZ 231720
TAFSHR
TAF
KSHR 231720Z 2318/2418 30009KT P6SM FEW050 BKN120
     FM232100 34008KT P6SM VCSH SCT050 BKN080
     FM240200 VRB06KT P6SM BKN100=



000
FTUS45 KBYZ 231720
TAFSHR
TAF
KSHR 231720Z 2318/2418 30009KT P6SM FEW050 BKN120
     FM232100 34008KT P6SM VCSH SCT050 BKN080
     FM240200 VRB06KT P6SM BKN100=



000
FTUS45 KBYZ 231720
TAFBIL
TAF
KBIL 231720Z 2318/2418 VRB06KT P6SM VCSH SCT050 BKN080
     FM232100 VRB06KT P6SM SCT200
     FM240800 24007KT P6SM SCT120
     FM241700 VRB06KT P6SM SCT200=



000
FTUS45 KBYZ 231720
TAFMLS
TAF
KMLS 231720Z 2318/2418 15010KT P6SM VCSH FEW070 BKN100
     FM232000 32010KT P6SM SCT100
     FM232300 VRB06KT P6SM SCT070
     FM241700 09007KT P6SM BKN060=



000
FTUS45 KBYZ 231720
TAFBIL
TAF
KBIL 231720Z 2318/2418 VRB06KT P6SM VCSH SCT050 BKN080
     FM232100 VRB06KT P6SM SCT200
     FM240800 24007KT P6SM SCT120
     FM241700 VRB06KT P6SM SCT200=



000
FTUS45 KBYZ 231720
TAFLVM
TAF
KLVM 231720Z 2318/2418 27012KT P6SM FEW060 BKN120
     FM232000 VRB06KT P6SM VCSH SCT050 BKN080
     FM240600 25013KT P6SM BKN080
     FM241600 23010KT P6SM BKN080=



000
FTUS45 KBYZ 231640 AAA
TAFBIL
TAF AMD
KBIL 231640Z 2317/2412 31010KT P6SM -SHRA SCT030 BKN040
     FM231900 06009KT P6SM FEW060 SCT100
     FM240800 24007KT P6SM BKN120=



000
FTUS45 KBYZ 231640 AAA
TAFBIL
TAF AMD
KBIL 231640Z 2317/2412 31010KT P6SM -SHRA SCT030 BKN040
     FM231900 06009KT P6SM FEW060 SCT100
     FM240800 24007KT P6SM BKN120=



000
FTUS45 KBYZ 231139
TAFLVM
TAF
KLVM 231139Z 2312/2412 28008KT P6SM VCSH BKN060
     FM231500 27007KT P6SM FEW060 BKN120
     FM232000 VRB06KT P6SM VCSH SCT050 BKN080
     FM240600 28009KT P6SM BKN080=



000
FTUS45 KBYZ 231139
TAFLVM
TAF
KLVM 231139Z 2312/2412 28008KT P6SM VCSH BKN060
     FM231500 27007KT P6SM FEW060 BKN120
     FM232000 VRB06KT P6SM VCSH SCT050 BKN080
     FM240600 28009KT P6SM BKN080=



000
FTUS45 KBYZ 231139
TAFSHR
TAF
KSHR 231139Z 2312/2412 VRB06KT P6SM FEW100 BKN200
     FM231500 32014KT P6SM FEW050 BKN120
     FM232000 34008KT P6SM VCSH SCT050 BKN080
     FM240400 VRB04KT P6SM BKN100=



000
FTUS45 KBYZ 231139
TAFBIL
TAF
KBIL 231139Z 2312/2412 23007KT P6SM VCSH FEW070 BKN100
     FM231500 29008KT P6SM VCSH BKN080
     FM231900 06009KT P6SM FEW060 SCT100
     FM240800 24007KT P6SM BKN120=



000
FTUS45 KBYZ 231139
TAFBIL
TAF
KBIL 231139Z 2312/2412 23007KT P6SM VCSH FEW070 BKN100
     FM231500 29008KT P6SM VCSH BKN080
     FM231900 06009KT P6SM FEW060 SCT100
     FM240800 24007KT P6SM BKN120=



000
FTUS45 KBYZ 231139
TAFSHR
TAF
KSHR 231139Z 2312/2412 VRB06KT P6SM FEW100 BKN200
     FM231500 32014KT P6SM FEW050 BKN120
     FM232000 34008KT P6SM VCSH SCT050 BKN080
     FM240400 VRB04KT P6SM BKN100=



000
FTUS45 KBYZ 231139
TAFBIL
TAF
KBIL 231139Z 2312/2412 23007KT P6SM VCSH FEW070 BKN100
     FM231500 29008KT P6SM VCSH BKN080
     FM231900 06009KT P6SM FEW060 SCT100
     FM240800 24007KT P6SM BKN120=



000
FTUS45 KBYZ 231139
TAFLVM
TAF
KLVM 231139Z 2312/2412 28008KT P6SM VCSH BKN060
     FM231500 27007KT P6SM FEW060 BKN120
     FM232000 VRB06KT P6SM VCSH SCT050 BKN080
     FM240600 28009KT P6SM BKN080=



000
FTUS45 KBYZ 231139
TAFMLS
TAF
KMLS 231139Z 2312/2412 13015KT P6SM VCSH SCT060 BKN100
     FM231500 15008KT P6SM VCSH FEW070 BKN100
     FM231900 32010KT P6SM SCT100
     FM240300 04007KT P6SM SCT120=



000
FTUS45 KBYZ 231139
TAFBIL
TAF
KBIL 231139Z 2312/2412 23007KT P6SM VCSH FEW070 BKN100
     FM231500 29008KT P6SM VCSH BKN080
     FM231900 06009KT P6SM FEW060 SCT100
     FM240800 24007KT P6SM BKN120=



000
FTUS45 KBYZ 231139
TAFLVM
TAF
KLVM 231139Z 2312/2412 28008KT P6SM VCSH BKN060
     FM231500 27007KT P6SM FEW060 BKN120
     FM232000 VRB06KT P6SM VCSH SCT050 BKN080
     FM240600 28009KT P6SM BKN080=



000
FTUS45 KBYZ 231139
TAFMLS
TAF
KMLS 231139Z 2312/2412 13015KT P6SM VCSH SCT060 BKN100
     FM231500 15008KT P6SM VCSH FEW070 BKN100
     FM231900 32010KT P6SM SCT100
     FM240300 04007KT P6SM SCT120=



000
FTUS45 KBYZ 231139
TAFSHR
TAF
KSHR 231139Z 2312/2412 VRB06KT P6SM FEW100 BKN200
     FM231500 32014KT P6SM FEW050 BKN120
     FM232000 34008KT P6SM VCSH SCT050 BKN080
     FM240400 VRB04KT P6SM BKN100=



000
FTUS45 KBYZ 231139
TAFSHR
TAF
KSHR 231139Z 2312/2412 VRB06KT P6SM FEW100 BKN200
     FM231500 32014KT P6SM FEW050 BKN120
     FM232000 34008KT P6SM VCSH SCT050 BKN080
     FM240400 VRB04KT P6SM BKN100=



000
FTUS45 KBYZ 231139
TAFMLS
TAF
KMLS 231139Z 2312/2412 13015KT P6SM VCSH SCT060 BKN100
     FM231500 15008KT P6SM VCSH FEW070 BKN100
     FM231900 32010KT P6SM SCT100
     FM240300 04007KT P6SM SCT120=



000
FTUS45 KBYZ 231139
TAFMLS
TAF
KMLS 231139Z 2312/2412 13015KT P6SM VCSH SCT060 BKN100
     FM231500 15008KT P6SM VCSH FEW070 BKN100
     FM231900 32010KT P6SM SCT100
     FM240300 04007KT P6SM SCT120=



000
FTUS45 KBYZ 230841 AAA
TAFMLS
TAF AMD
KMLS 230841Z 2309/2406 13016G22KT P6SM FEW050 BKN120
      TEMPO 2309/2311 -SHRA BKN050
     FM231100 13011KT P6SM FEW100 BKN150
     FM231800 32011KT P6SM FEW080 BKN120=



000
FTUS45 KBYZ 230841 AAA
TAFMLS
TAF AMD
KMLS 230841Z 2309/2406 13016G22KT P6SM FEW050 BKN120
      TEMPO 2309/2311 -SHRA BKN050
     FM231100 13011KT P6SM FEW100 BKN150
     FM231800 32011KT P6SM FEW080 BKN120=



000
FTUS45 KBYZ 230840 AAB
TAFBIL
TAF AMD
KBIL 230840Z 2309/2406 33020KT P6SM VCSH SCT080 BKN120
     FM231000 32011KT P6SM VCSH BKN080
     FM231900 05009KT P6SM SCT060 BKN100=



000
FTUS45 KBYZ 230840 AAB
TAFBIL
TAF AMD
KBIL 230840Z 2309/2406 33020KT P6SM VCSH SCT080 BKN120
     FM231000 32011KT P6SM VCSH BKN080
     FM231900 05009KT P6SM SCT060 BKN100=



000
FTUS45 KBYZ 230704 AAA
TAFBIL
TAF AMD
KBIL 230704Z 2307/2406 33020KT P6SM SCT080 BKN120
     FM230800 32011KT P6SM VCSH BKN080
     FM231900 05009KT P6SM SCT060 BKN100=



000
FTUS45 KBYZ 230704 AAA
TAFBIL
TAF AMD
KBIL 230704Z 2307/2406 33020KT P6SM SCT080 BKN120
     FM230800 32011KT P6SM VCSH BKN080
     FM231900 05009KT P6SM SCT060 BKN100=



000
FTUS45 KBYZ 230538
TAFBIL
TAF
KBIL 230538Z 2306/2406 27009KT P6SM VCSH SCT050 BKN090
      TEMPO 2306/2307 27018KT -SHRA BKN050
     FM230700 31009KT P6SM VCSH BKN080
     FM231900 05009KT P6SM SCT060 BKN100=



000
FTUS45 KBYZ 230538
TAFMLS
TAF
KMLS 230538Z 2306/2406 12011KT P6SM SCT150
     FM231800 32011KT P6SM FEW080 BKN120=



000
FTUS45 KBYZ 230538
TAFLVM
TAF
KLVM 230538Z 2306/2406 VRB06KT P6SM VCSH FEW030 BKN080
     FM230800 28009KT P6SM VCSH BKN070=



000
FTUS45 KBYZ 230538
TAFSHR
TAF
KSHR 230538Z 2306/2406 VRB06KT P6SM FEW100 BKN200
     FM231500 31014KT P6SM VCSH BKN080
     FM231900 33008KT P6SM VCSH SCT050 BKN080=



000
FTUS45 KBYZ 230538
TAFLVM
TAF
KLVM 230538Z 2306/2406 VRB06KT P6SM VCSH FEW030 BKN080
     FM230800 28009KT P6SM VCSH BKN070=



000
FTUS45 KBYZ 230538
TAFSHR
TAF
KSHR 230538Z 2306/2406 VRB06KT P6SM FEW100 BKN200
     FM231500 31014KT P6SM VCSH BKN080
     FM231900 33008KT P6SM VCSH SCT050 BKN080=



000
FTUS45 KBYZ 230538
TAFBIL
TAF
KBIL 230538Z 2306/2406 27009KT P6SM VCSH SCT050 BKN090
      TEMPO 2306/2307 27018KT -SHRA BKN050
     FM230700 31009KT P6SM VCSH BKN080
     FM231900 05009KT P6SM SCT060 BKN100=



000
FTUS45 KBYZ 230538
TAFMLS
TAF
KMLS 230538Z 2306/2406 12011KT P6SM SCT150
     FM231800 32011KT P6SM FEW080 BKN120=



000
FTUS45 KBYZ 230502 AAA
TAFBIL
TAF AMD
KBIL 230502Z 2305/2324 VRB06KT P6SM VCSH SCT050 BKN090
     FM231500 33007KT P6SM SCT080
     FM231800 04007KT P6SM SCT100=



000
FTUS45 KBYZ 230502 AAA
TAFBIL
TAF AMD
KBIL 230502Z 2305/2324 VRB06KT P6SM VCSH SCT050 BKN090
     FM231500 33007KT P6SM SCT080
     FM231800 04007KT P6SM SCT100=



000
FTUS45 KBYZ 230502 AAA
TAFBIL
TAF AMD
KBIL 230502Z 2305/2324 VRB06KT P6SM VCSH SCT050 BKN090
     FM231500 33007KT P6SM SCT080
     FM231800 04007KT P6SM SCT100=



000
FTUS45 KBYZ 230459 AAA
TAFLVM
TAF AMD
KLVM 230459Z 2305/2324 VRB06KT P6SM VCSH SCT035 BKN050
      TEMPO 2305/2306 -SHRA BKN035
     FM230900 28007KT P6SM SCT060
     FM231800 29008KT P6SM VCSH BKN080=



000
FTUS45 KBYZ 230459 AAA
TAFLVM
TAF AMD
KLVM 230459Z 2305/2324 VRB06KT P6SM VCSH SCT035 BKN050
      TEMPO 2305/2306 -SHRA BKN035
     FM230900 28007KT P6SM SCT060
     FM231800 29008KT P6SM VCSH BKN080=



    US Dept of Commerce
    National Oceanic and Atmospheric Administration
    National Weather Service
    1325 East West Highway
    Silver Spring, MD 20910
    Page Author: NWS Internet Services Team
Disclaimer
Information Quality
Credits
Glossary
Privacy Policy
Freedom of Information Act (FOIA)
About Us
Career Opportunities